セントジョンズ の空港の天気 - METARとTAF

セント・ジョンズ国際空港 ( CYYT / YYT ) - カナダ ニューファンドランド・ラブラドール州セントジョンズ
飛行場実況気象(Metar)
観測時間06/17 16:30 NDT (06/17 19:00 UTC)
風向・風速南東 3m/s
視程400m
天気現象
全天を覆う雲 鉛直視程 30m
気温7℃
湿度100%
気圧1011.9hPa
METARCYYT 171900Z 14006KT 1/4SM R11/P6000FT/N R16/3500FT/N FG VV001 07/07 A2987 RMK FG8 SLP119
過去の天気等 Google飛行場航空写真 Wunderground天気予報

過去48時間のMETAR

飛行場予報(TAF)
発表時間: 6/17 15:08 NDT (6/17 17:38 UTC)
予報対象時間: 17日15時 NDT ~ 18日15時 NDT
風向・風速南東 4m/s
視程400m
天気現象
全天を覆う雲 鉛直視程 30m
17日15時 NDT ~ 18日6時 NDT に一時的に
視程3220m
天気現象もや
全天を覆う雲 雲底高度 90m
18日6時 NDT から
風向・風速西 3m/s
視程3220m
天気現象弱い霧雨 もや
全天を覆う雲 雲底高度 120m
18日9時 NDT から
風向・風速西北西 4m/s
視程10km以上
天気現象もや
全天を覆う雲 雲底高度 150m
18日13時 NDT から
風向・風速北北西 3m/s
視程10km以上
全天を覆う雲 雲底高度 370m
TAF CYYT 171738Z 1718/1818 13008KT 1/4SM FG VV001
TEMPO 1718/1809 2SM BR OVC003
FM180900 28006KT 2SM -DZ BR OVC004
FM181200 30007KT 6SM BR OVC005
FM181600 33005KT P6SM OVC012 RMK NXT FCST BY 180000Z